createdAt,value
2022-12-31T00:00:29.109Z,0.28
2022-12-31T00:05:32.055Z,0.40
2022-12-31T00:10:39.924Z,0.45
2022-12-31T00:15:42.851Z,0.35
2022-12-31T00:20:44.543Z,0.40
2022-12-31T00:25:46.213Z,0.80
2022-12-31T00:30:47.938Z,0.82
2022-12-31T00:35:49.628Z,0.80
2022-12-31T00:40:51.286Z,0.47
2022-12-31T00:45:53.050Z,0.45
2022-12-31T00:50:56.000Z,0.52
2022-12-31T00:56:02.296Z,0.82
2022-12-31T01:01:19.963Z,0.43
2022-12-31T01:06:22.027Z,0.45
2022-12-31T01:11:29.079Z,2.95
2022-12-31T01:16:32.249Z,0.70
2022-12-31T01:21:35.392Z,0.50
2022-12-31T01:26:37.827Z,0.35
2022-12-31T01:31:40.207Z,0.30
2022-12-31T01:36:41.998Z,0.30
2022-12-31T01:41:45.824Z,0.40
2022-12-31T01:46:51.740Z,0.30
2022-12-31T01:52:03.858Z,0.40
2022-12-31T01:57:06.751Z,0.40
2022-12-31T02:02:08.556Z,0.40
2022-12-31T02:07:11.642Z,0.47
2022-12-31T02:12:13.438Z,0.60
2022-12-31T02:17:40.298Z,0.38
2022-12-31T02:23:20.915Z,0.30
2022-12-31T02:28:52.515Z,0.43
2022-12-31T02:34:10.412Z,0.35
2022-12-31T02:39:13.860Z,0.38
2022-12-31T02:44:25.544Z,0.30
2022-12-31T02:49:54.649Z,0.60
2022-12-31T02:55:16.133Z,0.30
2022-12-31T03:00:36.977Z,0.57
2022-12-31T03:05:43.209Z,0.50
2022-12-31T03:10:44.880Z,0.32
2022-12-31T03:15:46.595Z,0.43
2022-12-31T03:21:09.123Z,0.40
2022-12-31T03:26:12.543Z,0.38
2022-12-31T03:31:14.437Z,0.32
2022-12-31T03:36:16.182Z,0.47
2022-12-31T03:41:17.851Z,0.30
2022-12-31T03:46:19.624Z,0.25
2022-12-31T03:51:21.381Z,0.30
2022-12-31T03:56:23.086Z,0.32
2022-12-31T04:01:25.425Z,0.30
2022-12-31T04:06:27.264Z,0.30
2022-12-31T04:11:28.959Z,0.38
2022-12-31T04:16:32.187Z,0.20
2022-12-31T04:21:35.333Z,0.30
2022-12-31T04:26:37.569Z,0.20
2022-12-31T04:31:39.282Z,0.43
2022-12-31T04:36:40.988Z,0.30
2022-12-31T04:41:42.676Z,0.32
2022-12-31T04:46:44.374Z,0.77
2022-12-31T04:51:46.171Z,1.30
2022-12-31T04:56:47.858Z,0.50
2022-12-31T05:01:49.666Z,1.65
2022-12-31T05:06:51.492Z,0.70
2022-12-31T05:11:53.238Z,0.50
2022-12-31T05:16:55.005Z,0.30
2022-12-31T05:22:15.331Z,1.48
2022-12-31T05:27:17.042Z,1.75
2022-12-31T05:32:18.859Z,0.47
2022-12-31T05:37:20.576Z,0.40
2022-12-31T05:42:22.721Z,0.50
2022-12-31T05:47:24.843Z,0.32
2022-12-31T05:52:26.658Z,0.65
2022-12-31T05:57:28.545Z,0.50
2022-12-31T06:02:30.296Z,0.50
2022-12-31T06:07:32.040Z,0.80
2022-12-31T06:12:33.867Z,0.88
2022-12-31T06:17:35.801Z,1.10
2022-12-31T06:22:37.455Z,0.20
2022-12-31T06:27:39.141Z,0.20
2022-12-31T06:32:41.146Z,1.02
2022-12-31T06:37:42.841Z,0.28
2022-12-31T06:42:44.619Z,0.30
2022-12-31T06:47:46.545Z,0.50
2022-12-31T06:52:48.280Z,0.38
2022-12-31T06:57:50.384Z,1.00
2022-12-31T07:03:19.356Z,0.40
2022-12-31T07:08:26.494Z,1.05
2022-12-31T07:13:38.196Z,0.60
2022-12-31T07:18:54.917Z,0.68
2022-12-31T07:23:56.883Z,0.70
2022-12-31T07:29:40.067Z,0.60
2022-12-31T07:35:03.534Z,1.83
2022-12-31T07:40:32.894Z,1.23
2022-12-31T07:46:13.467Z,0.73
2022-12-31T07:51:15.611Z,1.08
2022-12-31T07:56:17.402Z,1.38
2022-12-31T08:01:47.046Z,0.50
2022-12-31T08:07:10.051Z,1.40
2022-12-31T08:12:11.836Z,0.88
2022-12-31T08:17:16.358Z,0.80
2022-12-31T08:22:40.503Z,2.47
2022-12-31T08:27:44.925Z,2.17
2022-12-31T08:33:13.191Z,1.08
2022-12-31T08:38:20.979Z,1.50
2022-12-31T08:43:25.429Z,1.00
2022-12-31T08:48:38.850Z,0.70
2022-12-31T08:53:40.900Z,2.58
2022-12-31T08:59:09.023Z,0.82
2022-12-31T09:04:32.725Z,2.38
2022-12-31T09:10:25.829Z,1.45
2022-12-31T09:15:39.239Z,1.65
2022-12-31T09:20:43.428Z,0.90
2022-12-31T09:26:08.310Z,1.83
2022-12-31T09:31:29.261Z,0.82
2022-12-31T09:36:43.793Z,1.27
2022-12-31T09:41:57.915Z,1.20
2022-12-31T09:47:24.126Z,4.45
2022-12-31T09:52:35.176Z,0.80
2022-12-31T09:57:41.216Z,1.88
2022-12-31T10:02:50.768Z,1.00
2022-12-31T10:08:17.732Z,2.80
2022-12-31T10:13:46.369Z,3.13
2022-12-31T10:19:13.368Z,1.42
2022-12-31T10:24:47.751Z,0.60
2022-12-31T10:30:12.242Z,1.80
2022-12-31T10:35:45.478Z,1.42
2022-12-31T10:40:58.892Z,1.15
2022-12-31T10:46:06.399Z,0.60
2022-12-31T10:51:23.539Z,2.33
2022-12-31T10:56:25.225Z,2.03
2022-12-31T11:01:27.009Z,1.63
2022-12-31T11:07:10.614Z,1.65
2022-12-31T11:12:31.001Z,1.00
2022-12-31T11:17:57.135Z,1.45
2022-12-31T11:23:09.513Z,2.80
2022-12-31T11:28:38.595Z,2.83
2022-12-31T11:34:10.580Z,3.85
2022-12-31T11:39:31.483Z,3.95
2022-12-31T11:44:52.712Z,1.95
2022-12-31T11:50:19.712Z,1.10
2022-12-31T11:55:43.334Z,2.83
2022-12-31T12:01:13.775Z,2.33
2022-12-31T12:06:18.842Z,1.50
2022-12-31T12:11:31.871Z,3.25
2022-12-31T12:16:33.609Z,4.22
2022-12-31T12:21:49.258Z,3.33
2022-12-31T12:26:51.332Z,4.28
2022-12-31T12:32:06.098Z,0.90
2022-12-31T12:37:28.639Z,5.05
2022-12-31T12:42:31.473Z,1.02
2022-12-31T12:47:34.139Z,2.00
2022-12-31T12:53:08.583Z,1.85
2022-12-31T12:58:21.477Z,1.05
2022-12-31T13:03:29.098Z,1.67
2022-12-31T13:08:35.894Z,2.55
2022-12-31T13:13:53.696Z,1.60
2022-12-31T13:18:59.074Z,0.85
2022-12-31T13:24:24.179Z,1.83
2022-12-31T13:29:31.109Z,3.67
2022-12-31T13:34:37.635Z,0.68
2022-12-31T13:39:41.874Z,1.20
2022-12-31T13:45:08.737Z,1.77
2022-12-31T13:50:24.960Z,1.75
2022-12-31T13:55:34.705Z,2.90
2022-12-31T14:01:02.074Z,2.65
2022-12-31T14:06:28.907Z,1.40
2022-12-31T14:11:54.251Z,4.47
2022-12-31T14:17:05.449Z,1.30
2022-12-31T14:22:39.570Z,3.30
2022-12-31T14:27:44.981Z,5.05
2022-12-31T14:32:52.650Z,1.50
2022-12-31T14:38:36.242Z,1.77
2022-12-31T14:43:56.837Z,1.73
2022-12-31T14:49:39.920Z,3.03
2022-12-31T14:54:42.036Z,1.10
2022-12-31T14:59:58.560Z,2.10
2022-12-31T15:05:12.567Z,2.13
2022-12-31T15:10:14.239Z,2.10
2022-12-31T15:15:33.383Z,1.70
2022-12-31T15:21:13.388Z,2.38
2022-12-31T15:26:25.522Z,3.05
2022-12-31T15:31:28.622Z,4.32
2022-12-31T15:36:40.493Z,2.95
2022-12-31T15:42:35.524Z,2.08
2022-12-31T15:47:19.224Z,3.42
2022-12-31T15:52:26.349Z,2.90
2022-12-31T15:57:37.802Z,2.72
2022-12-31T16:02:43.030Z,3.15
2022-12-31T16:07:45.208Z,2.70
2022-12-31T16:12:47.246Z,5.57
2022-12-31T16:18:04.432Z,40.85
2022-12-31T16:23:27.505Z,3.90
2022-12-31T16:28:32.185Z,5.68
2022-12-31T16:33:34.301Z,4.18
2022-12-31T16:38:37.757Z,4.78
2022-12-31T16:43:42.080Z,6.28
2022-12-31T16:49:03.940Z,5.97
2022-12-31T16:54:19.297Z,4.47
2022-12-31T16:59:24.170Z,5.32
2022-12-31T17:04:26.371Z,4.82
2022-12-31T17:09:36.951Z,5.20
2022-12-31T17:14:49.159Z,5.03
2022-12-31T17:19:57.373Z,4.20
2022-12-31T17:25:22.923Z,4.15
2022-12-31T17:30:32.557Z,4.35
2022-12-31T17:35:42.765Z,5.40
2022-12-31T17:40:53.622Z,10.85
2022-12-31T17:45:55.448Z,4.65
2022-12-31T17:51:00.300Z,4.20
2022-12-31T17:56:05.156Z,4.78
2022-12-31T18:01:09.020Z,5.28
2022-12-31T18:06:16.600Z,12.30
2022-12-31T18:11:22.106Z,3.53
2022-12-31T18:16:23.919Z,20.98
2022-12-31T18:21:34.504Z,10.40
2022-12-31T18:26:36.278Z,4.45
2022-12-31T18:31:39.407Z,5.90
2022-12-31T18:36:41.859Z,5.43
2022-12-31T18:41:50.820Z,4.47
2022-12-31T18:46:52.518Z,15.00
2022-12-31T18:51:55.189Z,13.13
2022-12-31T18:56:57.304Z,11.50
2022-12-31T19:01:59.260Z,4.68
2022-12-31T19:07:01.007Z,4.28
2022-12-31T19:12:02.940Z,5.28
2022-12-31T19:22:05.254Z,5.70
2022-12-31T19:27:06.928Z,6.65
2022-12-31T19:32:08.699Z,3.78
2022-12-31T19:37:15.203Z,3.38
2022-12-31T19:42:16.929Z,4.10
2022-12-31T19:47:18.585Z,3.92
2022-12-31T19:52:20.261Z,13.70
2022-12-31T19:57:21.961Z,6.20
2022-12-31T20:02:23.859Z,5.60
2022-12-31T20:07:27.351Z,4.82
2022-12-31T20:12:29.578Z,4.03
2022-12-31T20:17:31.559Z,5.28
2022-12-31T20:22:33.485Z,6.05
2022-12-31T20:27:35.357Z,3.75
2022-12-31T20:32:37.096Z,4.72
2022-12-31T20:37:38.902Z,11.63
2022-12-31T20:42:41.312Z,4.45
2022-12-31T20:47:43.000Z,3.60
2022-12-31T20:52:44.794Z,4.88
2022-12-31T20:57:46.561Z,50.00
2022-12-31T21:02:57.675Z,5.72
2022-12-31T21:08:05.743Z,6.43
2022-12-31T21:13:07.663Z,30.70
2022-12-31T21:18:09.472Z,4.97
2022-12-31T21:23:11.134Z,4.97
2022-12-31T21:28:13.084Z,6.05
2022-12-31T21:33:14.847Z,6.97
2022-12-31T21:38:16.936Z,6.25
2022-12-31T21:43:18.956Z,13.77
2022-12-31T21:48:21.061Z,8.90
2022-12-31T21:53:29.071Z,6.95
2022-12-31T21:58:40.439Z,5.18
2022-12-31T22:03:42.311Z,5.05
2022-12-31T22:08:47.310Z,8.48
2022-12-31T22:13:49.571Z,5.72
2022-12-31T22:18:51.317Z,8.98
2022-12-31T22:23:55.522Z,6.57
2022-12-31T22:28:59.360Z,9.70
2022-12-31T22:34:02.156Z,10.40
2022-12-31T22:39:04.043Z,6.55
2022-12-31T22:44:05.882Z,4.82
2022-12-31T22:49:09.915Z,7.50
2022-12-31T22:54:11.776Z,10.07
2022-12-31T22:59:13.708Z,83.22
2022-12-31T23:04:15.678Z,120.45
2022-12-31T23:09:37.028Z,173.10
2022-12-31T23:14:57.418Z,535.45
2022-12-31T23:20:21.370Z,256.67
2022-12-31T23:25:23.072Z,165.77
2022-12-31T23:30:24.993Z,177.05
2022-12-31T23:35:26.718Z,91.90
2022-12-31T23:40:34.322Z,112.30
2022-12-31T23:45:36.901Z,108.82
2022-12-31T23:50:40.718Z,70.47
2022-12-31T23:55:42.422Z,75.57
